createdAt,value
2023-05-07T00:01:36.222Z,15.61
2023-05-07T00:04:04.742Z,15.52
2023-05-07T00:06:34.108Z,15.64
2023-05-07T00:09:02.564Z,15.67
2023-05-07T00:11:32.286Z,15.64
2023-05-07T00:14:00.901Z,15.58
2023-05-07T00:16:29.159Z,15.54
2023-05-07T00:18:57.420Z,15.69
2023-05-07T00:21:27.749Z,15.53
2023-05-07T00:23:56.021Z,15.52
2023-05-07T00:26:24.514Z,15.49
2023-05-07T00:28:54.125Z,15.51
2023-05-07T00:31:22.463Z,15.44
2023-05-07T00:33:50.733Z,15.46
2023-05-07T00:36:19.113Z,15.45
2023-05-07T00:38:47.376Z,15.23
2023-05-07T00:41:15.703Z,15.37
2023-05-07T00:43:45.256Z,15.40
2023-05-07T00:46:15.015Z,15.43
2023-05-07T00:48:43.294Z,15.28
2023-05-07T00:51:12.382Z,15.42
2023-05-07T00:53:40.857Z,15.43
2023-05-07T00:56:09.215Z,15.43
2023-05-07T00:58:37.440Z,15.40
2023-05-07T01:01:06.051Z,15.38
2023-05-07T01:03:35.802Z,15.21
2023-05-07T01:06:04.426Z,15.33
2023-05-07T01:08:32.820Z,15.21
2023-05-07T01:11:01.366Z,15.33
2023-05-07T01:13:29.790Z,15.28
2023-05-07T01:15:58.104Z,15.25
2023-05-07T01:18:26.882Z,15.34
2023-05-07T01:20:56.882Z,15.39
2023-05-07T01:23:26.451Z,15.47
2023-05-07T01:25:55.150Z,15.21
2023-05-07T01:28:23.385Z,15.26
2023-05-07T01:30:54.671Z,15.19
2023-05-07T01:33:23.795Z,15.11
2023-05-07T01:35:53.863Z,15.08
2023-05-07T01:38:22.409Z,15.10
2023-05-07T01:40:52.157Z,15.08
2023-05-07T01:43:20.378Z,15.12
2023-05-07T01:45:50.242Z,15.10
2023-05-07T01:48:18.520Z,15.13
2023-05-07T01:50:46.779Z,15.11
2023-05-07T01:53:14.933Z,15.07
2023-05-07T01:55:43.518Z,15.15
2023-05-07T01:58:13.130Z,15.04
2023-05-07T02:00:42.108Z,15.07
2023-05-07T02:03:10.541Z,15.05
2023-05-07T02:05:39.109Z,15.14
2023-05-07T02:08:07.483Z,15.03
2023-05-07T02:10:35.687Z,15.13
2023-05-07T02:13:03.994Z,15.17
2023-05-07T02:15:33.941Z,14.97
2023-05-07T02:18:03.153Z,15.16
2023-05-07T02:20:31.455Z,15.10
2023-05-07T02:22:59.608Z,15.18
2023-05-07T02:25:27.916Z,15.07
2023-05-07T02:27:56.409Z,15.12
2023-05-07T02:30:24.928Z,15.07
2023-05-07T02:32:54.639Z,15.10
2023-05-07T02:35:23.195Z,14.97
2023-05-07T02:37:51.470Z,15.06
2023-05-07T02:40:19.832Z,15.01
2023-05-07T02:42:48.105Z,14.99
2023-05-07T02:45:16.735Z,14.83
2023-05-07T02:47:45.041Z,14.90
2023-05-07T02:50:15.809Z,14.83
2023-05-07T02:52:44.028Z,14.84
2023-05-07T02:55:12.951Z,14.89
2023-05-07T02:57:41.170Z,14.80
2023-05-07T03:00:14.113Z,14.83
2023-05-07T03:02:42.675Z,14.81
2023-05-07T03:05:11.281Z,14.82
2023-05-07T03:07:40.975Z,14.77
2023-05-07T03:10:09.895Z,14.77
2023-05-07T03:12:38.320Z,14.77
2023-05-07T03:15:07.545Z,14.67
2023-05-07T03:17:35.784Z,14.81
2023-05-07T03:20:04.103Z,14.65
2023-05-07T03:22:32.416Z,14.80
2023-05-07T03:25:02.273Z,14.67
2023-05-07T03:27:30.518Z,14.71
2023-05-07T03:29:58.723Z,14.55
2023-05-07T03:32:27.537Z,14.57
2023-05-07T03:34:55.792Z,14.58
2023-05-07T03:37:24.055Z,14.60
2023-05-07T03:39:52.218Z,14.64
2023-05-07T03:42:21.850Z,14.65
2023-05-07T03:44:50.016Z,14.58
2023-05-07T03:47:18.296Z,14.64
2023-05-07T03:49:46.771Z,14.67
2023-05-07T03:52:15.662Z,14.64
2023-05-07T03:54:43.855Z,14.68
2023-05-07T03:57:12.179Z,14.65
2023-05-07T03:59:41.792Z,14.69
2023-05-07T04:02:10.400Z,14.63
2023-05-07T04:04:38.758Z,14.55
2023-05-07T04:07:07.011Z,14.55
2023-05-07T04:09:35.315Z,14.68
2023-05-07T04:12:03.592Z,14.54
2023-05-07T04:14:33.308Z,14.45
2023-05-07T04:17:03.905Z,14.52
2023-05-07T04:19:32.455Z,14.47
2023-05-07T04:22:00.631Z,14.40
2023-05-07T04:24:28.999Z,14.43
2023-05-07T04:26:57.508Z,14.51
2023-05-07T04:29:25.767Z,14.42
2023-05-07T04:31:54.057Z,14.49
2023-05-07T04:34:23.813Z,14.54
2023-05-07T04:36:51.998Z,14.42
2023-05-07T04:39:20.219Z,14.53
2023-05-07T04:41:48.461Z,14.59
2023-05-07T04:44:16.746Z,14.50
2023-05-07T04:46:44.934Z,14.51
2023-05-07T04:49:13.211Z,14.56
2023-05-07T04:51:44.990Z,14.57
2023-05-07T04:54:13.496Z,14.63
2023-05-07T04:56:41.724Z,14.73
2023-05-07T04:59:10.030Z,14.70
2023-05-07T05:01:38.326Z,14.61
2023-05-07T05:04:06.705Z,14.85
2023-05-07T05:06:34.957Z,14.86
2023-05-07T05:09:06.102Z,14.92
2023-05-07T05:11:34.331Z,15.03
2023-05-07T05:14:03.187Z,15.07
2023-05-07T05:16:31.447Z,15.12
2023-05-07T05:18:59.786Z,15.27
2023-05-07T05:21:27.968Z,15.26
2023-05-07T05:23:56.322Z,15.36
2023-05-07T05:26:25.934Z,15.42
2023-05-07T05:28:54.666Z,15.24
2023-05-07T05:31:22.947Z,15.45
2023-05-07T05:33:51.296Z,15.57
2023-05-07T05:36:19.573Z,15.49
2023-05-07T05:38:47.795Z,15.44
2023-05-07T05:41:16.112Z,15.46
2023-05-07T05:43:45.761Z,15.57
2023-05-07T05:46:13.986Z,15.73
2023-05-07T05:48:42.269Z,15.75
2023-05-07T05:51:10.491Z,15.79
2023-05-07T05:53:39.084Z,15.81
2023-05-07T05:56:08.326Z,15.97
2023-05-07T05:58:36.501Z,16.02
2023-05-07T06:01:06.432Z,16.08
2023-05-07T06:03:34.705Z,16.17
2023-05-07T06:06:03.361Z,16.34
2023-05-07T06:08:32.448Z,16.48
2023-05-07T06:11:01.136Z,16.61
2023-05-07T06:13:29.484Z,16.65
2023-05-07T06:15:58.016Z,16.80
2023-05-07T06:18:27.681Z,16.98
2023-05-07T06:20:55.953Z,16.98
2023-05-07T06:23:24.235Z,17.05
2023-05-07T06:25:52.896Z,17.19
2023-05-07T06:28:21.286Z,17.20
2023-05-07T06:30:51.335Z,17.20
2023-05-07T06:33:20.805Z,17.25
2023-05-07T06:35:50.980Z,17.34
2023-05-07T06:38:19.198Z,17.38
2023-05-07T06:40:50.734Z,17.62
2023-05-07T06:43:18.977Z,17.62
2023-05-07T06:45:47.279Z,17.70
2023-05-07T06:48:16.929Z,17.62
2023-05-07T06:50:45.207Z,17.86
2023-05-07T06:53:14.767Z,17.74
2023-05-07T06:55:43.319Z,17.93
2023-05-07T06:58:11.522Z,18.00
2023-05-07T07:00:39.794Z,18.04
2023-05-07T07:03:08.017Z,18.15
2023-05-07T07:05:36.608Z,18.09
2023-05-07T07:08:04.829Z,18.22
2023-05-07T07:10:34.740Z,18.33
2023-05-07T07:13:03.375Z,18.30
2023-05-07T07:15:31.783Z,18.60
2023-05-07T07:18:00.102Z,18.49
2023-05-07T07:20:28.481Z,18.47
2023-05-07T07:22:56.746Z,18.51
2023-05-07T07:25:26.005Z,18.68
2023-05-07T07:27:57.102Z,18.65
2023-05-07T07:30:25.584Z,18.53
2023-05-07T07:32:53.972Z,19.00
2023-05-07T07:35:22.354Z,18.81
2023-05-07T07:37:54.948Z,19.12
2023-05-07T07:40:24.890Z,19.19
2023-05-07T07:42:53.107Z,19.26
2023-05-07T07:45:25.295Z,19.63
2023-05-07T07:47:53.744Z,19.60
2023-05-07T07:50:42.924Z,19.77
2023-05-07T07:53:15.575Z,19.83
2023-05-07T07:55:43.921Z,19.87
2023-05-07T07:58:14.349Z,19.88
2023-05-07T08:00:43.990Z,19.91
2023-05-07T08:03:12.892Z,20.08
2023-05-07T08:05:52.511Z,20.31
2023-05-07T08:08:23.724Z,20.20
2023-05-07T08:10:52.586Z,20.34
2023-05-07T08:13:21.284Z,20.62
2023-05-07T08:15:51.325Z,20.61
2023-05-07T08:18:19.637Z,20.58
2023-05-07T08:20:48.251Z,20.58
2023-05-07T08:23:16.736Z,20.69
2023-05-07T08:25:46.021Z,20.79
2023-05-07T08:28:14.314Z,20.96
2023-05-07T08:30:42.732Z,21.00
2023-05-07T08:33:12.821Z,21.10
2023-05-07T08:35:41.133Z,21.35
2023-05-07T08:38:33.541Z,21.49
2023-05-07T08:41:22.969Z,21.26
2023-05-07T08:43:52.584Z,21.38
2023-05-07T08:46:24.074Z,21.37
2023-05-07T08:48:53.873Z,21.46
2023-05-07T08:51:22.636Z,21.76
2023-05-07T08:53:51.513Z,21.70
2023-05-07T08:56:22.460Z,21.64
2023-05-07T08:58:51.141Z,21.97
2023-05-07T09:01:19.540Z,21.82
2023-05-07T09:03:48.261Z,21.86
2023-05-07T09:06:18.682Z,21.93
2023-05-07T09:08:51.775Z,21.99
2023-05-07T09:11:27.224Z,22.25
2023-05-07T09:14:04.029Z,22.25
2023-05-07T09:16:33.831Z,22.30
2023-05-07T09:19:02.221Z,21.90
2023-05-07T09:21:32.789Z,22.24
2023-05-07T09:24:01.109Z,21.91
2023-05-07T09:26:29.511Z,21.95
2023-05-07T09:29:09.811Z,21.63
2023-05-07T09:31:39.974Z,21.65
2023-05-07T09:34:09.068Z,21.59
2023-05-07T09:36:38.688Z,21.54
2023-05-07T09:39:07.318Z,21.65
2023-05-07T09:41:35.648Z,21.70
2023-05-07T09:44:03.928Z,21.83
2023-05-07T09:46:32.755Z,21.71
2023-05-07T09:49:01.373Z,21.72
2023-05-07T09:51:32.506Z,21.85
2023-05-07T09:54:04.400Z,21.96
2023-05-07T09:56:32.798Z,22.26
2023-05-07T09:59:01.952Z,21.95
2023-05-07T10:01:30.196Z,22.17
2023-05-07T10:03:59.994Z,22.28
2023-05-07T10:06:28.402Z,22.23
2023-05-07T10:08:56.660Z,22.27
2023-05-07T10:11:26.417Z,22.42
2023-05-07T10:13:55.185Z,22.47
2023-05-07T10:16:23.708Z,22.51
2023-05-07T10:18:52.046Z,22.60
2023-05-07T10:21:21.083Z,22.75
2023-05-07T10:23:52.275Z,22.80
2023-05-07T10:26:21.435Z,23.07
2023-05-07T10:28:53.208Z,22.70
2023-05-07T10:31:30.008Z,22.91
2023-05-07T10:34:01.308Z,22.73
2023-05-07T10:36:29.603Z,23.14
2023-05-07T10:38:57.871Z,22.89
2023-05-07T10:41:26.205Z,23.16
2023-05-07T10:43:57.293Z,22.99
2023-05-07T10:46:25.612Z,23.28
2023-05-07T10:49:13.270Z,23.07
2023-05-07T10:51:41.678Z,23.23
2023-05-07T10:54:23.295Z,23.34
2023-05-07T10:56:52.226Z,23.42
2023-05-07T10:59:43.973Z,23.21
2023-05-07T11:02:15.424Z,23.54
2023-05-07T11:04:43.791Z,23.54
2023-05-07T11:07:32.963Z,23.32
2023-05-07T11:10:05.918Z,23.18
2023-05-07T11:12:50.831Z,23.41
2023-05-07T11:15:43.105Z,23.54
2023-05-07T11:18:11.798Z,23.27
2023-05-07T11:20:47.716Z,23.54
2023-05-07T11:24:09.248Z,23.96
2023-05-07T11:26:47.729Z,23.57
2023-05-07T11:29:19.402Z,23.64
2023-05-07T11:31:53.150Z,23.69
2023-05-07T11:34:24.913Z,23.65
2023-05-07T11:36:53.157Z,23.60
2023-05-07T11:39:39.527Z,23.45
2023-05-07T11:42:09.196Z,23.87
2023-05-07T11:44:44.639Z,23.48
2023-05-07T11:47:19.310Z,23.63
2023-05-07T11:49:49.074Z,23.80
2023-05-07T11:52:17.341Z,23.73
2023-05-07T11:54:51.500Z,23.43
2023-05-07T11:57:20.234Z,23.35
2023-05-07T11:59:49.283Z,23.67
2023-05-07T12:02:19.637Z,23.08
2023-05-07T12:04:47.919Z,23.05
2023-05-07T12:07:16.741Z,23.18
2023-05-07T12:09:50.526Z,22.79
2023-05-07T12:12:19.573Z,22.73
2023-05-07T12:14:48.127Z,22.76
2023-05-07T12:17:16.602Z,22.87
2023-05-07T12:19:46.623Z,22.95
2023-05-07T12:22:14.853Z,22.86
2023-05-07T12:24:47.285Z,22.66
2023-05-07T12:27:15.840Z,22.79
2023-05-07T12:29:47.409Z,22.77
2023-05-07T12:32:16.233Z,22.78
2023-05-07T12:34:46.054Z,22.97
2023-05-07T12:37:15.000Z,22.57
2023-05-07T12:39:47.238Z,22.67
2023-05-07T12:42:17.597Z,23.12
2023-05-07T12:44:47.967Z,22.67
2023-05-07T12:47:17.382Z,23.03
2023-05-07T12:49:48.169Z,23.27
2023-05-07T12:52:16.681Z,23.17
2023-05-07T12:54:45.555Z,22.83
2023-05-07T12:57:13.787Z,22.80
2023-05-07T12:59:42.677Z,22.61
2023-05-07T13:02:11.142Z,22.59
2023-05-07T13:04:39.757Z,22.44
2023-05-07T13:07:09.477Z,21.72
2023-05-07T13:09:38.416Z,21.57
2023-05-07T13:12:17.687Z,21.66
2023-05-07T13:14:47.119Z,21.30
2023-05-07T13:17:15.637Z,20.87
2023-05-07T13:19:43.873Z,20.95
2023-05-07T13:22:13.606Z,20.67
2023-05-07T13:24:42.918Z,20.68
2023-05-07T13:27:11.497Z,20.20
2023-05-07T13:29:41.129Z,20.33
2023-05-07T13:32:10.454Z,20.73
2023-05-07T13:34:45.200Z,20.36
2023-05-07T13:37:17.140Z,20.59
2023-05-07T13:39:45.822Z,20.18
2023-05-07T13:42:14.055Z,20.53
2023-05-07T13:44:42.745Z,20.39
2023-05-07T13:47:11.043Z,20.11
2023-05-07T13:49:39.306Z,20.33
2023-05-07T13:52:07.523Z,20.34
2023-05-07T13:54:37.584Z,20.55
2023-05-07T13:57:05.845Z,20.47
2023-05-07T13:59:34.172Z,20.58
2023-05-07T14:02:02.406Z,20.48
2023-05-07T14:04:30.690Z,20.05
2023-05-07T14:06:58.972Z,19.82
2023-05-07T14:09:27.212Z,20.04
2023-05-07T14:11:56.955Z,19.77
2023-05-07T14:14:25.506Z,19.68
2023-05-07T14:16:53.886Z,19.39
2023-05-07T14:19:23.797Z,19.64
2023-05-07T14:21:52.021Z,19.51
2023-05-07T14:24:34.458Z,19.56
2023-05-07T14:27:07.942Z,19.50
2023-05-07T14:29:37.351Z,19.42
2023-05-07T14:32:06.184Z,19.39
2023-05-07T14:34:34.394Z,19.51
2023-05-07T14:37:02.627Z,19.49
2023-05-07T14:39:30.912Z,19.56
2023-05-07T14:41:59.902Z,19.54
2023-05-07T14:44:30.585Z,19.59
2023-05-07T14:47:02.227Z,19.49
2023-05-07T14:49:31.171Z,19.50
2023-05-07T14:52:00.283Z,19.41
2023-05-07T14:54:28.612Z,19.56
2023-05-07T14:56:59.139Z,19.48
2023-05-07T14:59:27.301Z,19.59
2023-05-07T15:01:57.117Z,19.38
2023-05-07T15:04:26.322Z,19.36
2023-05-07T15:06:55.034Z,19.12
2023-05-07T15:09:23.610Z,19.24
2023-05-07T15:11:51.873Z,19.21
2023-05-07T15:14:20.226Z,19.25
2023-05-07T15:16:51.014Z,19.24
2023-05-07T15:19:20.745Z,19.35
2023-05-07T15:21:48.948Z,19.31
2023-05-07T15:24:17.283Z,19.37
2023-05-07T15:26:46.059Z,19.39
2023-05-07T15:29:14.383Z,19.32
2023-05-07T15:31:42.971Z,19.31
2023-05-07T15:34:11.331Z,19.16
2023-05-07T15:36:41.038Z,19.12
2023-05-07T15:39:09.456Z,19.13
2023-05-07T15:41:38.038Z,19.30
2023-05-07T15:44:06.861Z,18.98
2023-05-07T15:46:35.239Z,19.14
2023-05-07T15:49:04.306Z,19.08
2023-05-07T15:51:33.170Z,19.06
2023-05-07T15:54:02.950Z,18.96
2023-05-07T15:56:33.953Z,18.88
2023-05-07T15:59:02.639Z,18.93
2023-05-07T16:01:31.527Z,18.73
2023-05-07T16:04:00.143Z,18.89
2023-05-07T16:06:34.303Z,18.96
2023-05-07T16:09:04.543Z,19.05
2023-05-07T16:11:34.231Z,19.10
2023-05-07T16:14:03.136Z,19.09
2023-05-07T16:16:34.307Z,19.01
2023-05-07T16:19:02.700Z,19.02
2023-05-07T16:21:31.561Z,18.95
2023-05-07T16:23:59.872Z,19.16
2023-05-07T16:26:29.919Z,19.22
2023-05-07T16:28:58.163Z,18.93
2023-05-07T16:31:26.737Z,19.10
2023-05-07T16:33:55.069Z,18.83
2023-05-07T16:36:23.429Z,18.78
2023-05-07T16:38:51.877Z,18.76
2023-05-07T16:41:20.334Z,18.75
2023-05-07T16:43:49.971Z,18.65
2023-05-07T16:46:18.379Z,18.79
2023-05-07T16:48:46.745Z,18.76
2023-05-07T16:51:15.004Z,18.83
2023-05-07T16:53:43.282Z,18.62
2023-05-07T16:56:11.527Z,18.66
2023-05-07T16:58:39.820Z,18.49
2023-05-07T17:01:11.662Z,18.30
2023-05-07T17:03:40.096Z,18.33
2023-05-07T17:06:14.168Z,18.40
2023-05-07T17:08:43.237Z,18.40
2023-05-07T17:11:11.653Z,18.34
2023-05-07T17:13:41.188Z,18.29
2023-05-07T17:16:11.236Z,18.12
2023-05-07T17:18:39.521Z,18.15
2023-05-07T17:21:07.798Z,18.22
2023-05-07T17:23:35.963Z,18.56
2023-05-07T17:26:04.323Z,18.43
2023-05-07T17:28:32.696Z,18.37
2023-05-07T17:31:01.434Z,18.42
2023-05-07T17:33:31.130Z,18.29
2023-05-07T17:35:59.677Z,17.99
2023-05-07T17:38:28.021Z,18.12
2023-05-07T17:40:56.341Z,18.15
2023-05-07T17:43:24.736Z,18.28
2023-05-07T17:45:53.381Z,18.08
2023-05-07T17:48:26.338Z,18.14
2023-05-07T17:51:01.899Z,18.35
2023-05-07T17:53:30.130Z,18.07
2023-05-07T17:55:58.365Z,18.15
2023-05-07T17:58:27.367Z,18.22
2023-05-07T18:00:55.726Z,18.34
2023-05-07T18:03:25.096Z,18.31
2023-05-07T18:05:56.532Z,18.22
2023-05-07T18:08:24.908Z,18.30
2023-05-07T18:10:53.172Z,18.11
2023-05-07T18:13:21.529Z,18.19
2023-05-07T18:15:51.195Z,18.00
2023-05-07T18:18:19.958Z,17.99
2023-05-07T18:20:50.924Z,18.05
2023-05-07T18:23:22.879Z,17.92
2023-05-07T18:25:51.363Z,18.15
2023-05-07T18:28:19.739Z,17.82
2023-05-07T18:30:47.922Z,17.63
2023-05-07T18:33:16.350Z,17.74
2023-05-07T18:35:46.075Z,17.83
2023-05-07T18:38:14.637Z,17.79
2023-05-07T18:40:44.872Z,17.69
2023-05-07T18:43:13.161Z,17.49
2023-05-07T18:45:42.366Z,17.49
2023-05-07T18:48:10.751Z,17.56
2023-05-07T18:50:39.630Z,17.38
2023-05-07T18:53:07.876Z,17.21
2023-05-07T18:55:36.173Z,17.41
2023-05-07T18:58:05.871Z,17.34
2023-05-07T19:00:34.206Z,17.15
2023-05-07T19:03:03.120Z,17.29
2023-05-07T19:05:31.567Z,17.33
2023-05-07T19:07:59.864Z,17.24
2023-05-07T19:10:28.511Z,17.27
2023-05-07T19:12:57.724Z,17.40
2023-05-07T19:15:27.872Z,17.24
2023-05-07T19:17:56.299Z,17.12
2023-05-07T19:20:24.557Z,17.18
2023-05-07T19:22:52.884Z,17.24
2023-05-07T19:25:21.476Z,17.18
2023-05-07T19:27:51.074Z,17.23
2023-05-07T19:30:19.574Z,17.13
2023-05-07T19:32:49.450Z,17.16
2023-05-07T19:35:17.811Z,17.02
2023-05-07T19:37:46.522Z,17.15
2023-05-07T19:40:15.485Z,16.99
2023-05-07T19:42:43.861Z,16.93
2023-05-07T19:45:13.119Z,16.91
2023-05-07T19:47:41.614Z,16.98
2023-05-07T19:50:12.172Z,17.06
2023-05-07T19:52:40.564Z,16.95
2023-05-07T19:55:10.000Z,16.89
2023-05-07T19:57:38.508Z,16.90
2023-05-07T20:00:08.402Z,16.98
2023-05-07T20:02:36.685Z,16.86
2023-05-07T20:05:05.240Z,16.74
2023-05-07T20:07:36.179Z,16.77
2023-05-07T20:10:04.647Z,16.90
2023-05-07T20:12:32.935Z,16.75
2023-05-07T20:15:01.265Z,16.84
2023-05-07T20:17:29.653Z,16.92
2023-05-07T20:19:58.101Z,16.64
2023-05-07T20:22:26.412Z,16.79
2023-05-07T20:24:56.148Z,16.66
2023-05-07T20:27:26.027Z,16.67
2023-05-07T20:29:54.585Z,16.68
2023-05-07T20:32:26.117Z,16.58
2023-05-07T20:34:54.805Z,16.58
2023-05-07T20:37:22.979Z,16.46
2023-05-07T20:39:52.740Z,16.43
2023-05-07T20:42:39.742Z,16.43
2023-05-07T20:45:09.756Z,16.31
2023-05-07T20:47:38.119Z,16.33
2023-05-07T20:50:17.415Z,16.36
2023-05-07T20:52:46.454Z,16.35
2023-05-07T20:55:14.773Z,16.36
2023-05-07T20:57:45.841Z,16.48
2023-05-07T21:00:16.002Z,16.39
2023-05-07T21:02:45.271Z,16.53
2023-05-07T21:05:20.729Z,16.28
2023-05-07T21:07:49.002Z,16.25
2023-05-07T21:10:17.225Z,16.22
2023-05-07T21:13:04.486Z,16.26
2023-05-07T21:15:32.728Z,16.12
2023-05-07T21:18:01.022Z,16.08
2023-05-07T21:20:30.536Z,16.18
2023-05-07T21:22:58.853Z,16.11
2023-05-07T21:25:27.175Z,16.07
2023-05-07T21:27:55.468Z,16.06
2023-05-07T21:30:25.215Z,16.07
2023-05-07T21:32:55.711Z,16.09
2023-05-07T21:35:24.192Z,15.88
2023-05-07T21:37:52.442Z,15.98
2023-05-07T21:40:22.477Z,16.04
2023-05-07T21:42:53.070Z,16.14
2023-05-07T21:45:21.523Z,16.07
2023-05-07T21:47:51.134Z,16.07
2023-05-07T21:50:19.611Z,16.14
2023-05-07T21:52:55.361Z,16.16
2023-05-07T21:55:23.748Z,16.22
2023-05-07T21:58:04.267Z,16.17
2023-05-07T22:00:34.140Z,16.16
2023-05-07T22:03:03.970Z,16.04
2023-05-07T22:05:32.366Z,16.18
2023-05-07T22:08:01.179Z,15.89
2023-05-07T22:10:29.844Z,15.94
2023-05-07T22:12:58.087Z,15.87
2023-05-07T22:15:26.991Z,15.82
2023-05-07T22:17:55.330Z,15.68
2023-05-07T22:20:25.122Z,15.95
2023-05-07T22:22:54.734Z,16.05
2023-05-07T22:25:23.126Z,15.91
2023-05-07T22:27:51.611Z,15.84
2023-05-07T22:30:19.999Z,15.69
2023-05-07T22:32:48.324Z,15.80
2023-05-07T22:35:16.663Z,15.71
2023-05-07T22:37:46.644Z,15.71
2023-05-07T22:40:19.001Z,15.57
2023-05-07T22:42:47.412Z,15.85
2023-05-07T22:45:15.773Z,15.70
2023-05-07T22:47:52.206Z,15.61
2023-05-07T22:50:20.685Z,15.68
2023-05-07T22:52:50.441Z,15.59
2023-05-07T22:55:18.982Z,15.47
2023-05-07T22:57:47.486Z,15.52
2023-05-07T23:00:16.418Z,15.45
2023-05-07T23:02:45.197Z,15.54
2023-05-07T23:05:13.643Z,15.40
2023-05-07T23:07:42.178Z,15.46
2023-05-07T23:10:12.525Z,15.49
2023-05-07T23:12:40.958Z,15.58
2023-05-07T23:15:10.680Z,15.70
2023-05-07T23:17:39.399Z,15.63
2023-05-07T23:20:09.458Z,15.55
2023-05-07T23:22:37.726Z,15.66
2023-05-07T23:25:08.805Z,15.60
2023-05-07T23:27:38.578Z,15.52
2023-05-07T23:30:08.329Z,15.62
2023-05-07T23:32:36.600Z,15.54
2023-05-07T23:35:05.143Z,15.54
2023-05-07T23:37:33.379Z,15.58
2023-05-07T23:40:01.637Z,15.60
2023-05-07T23:42:29.853Z,15.58
2023-05-07T23:44:59.497Z,15.41
2023-05-07T23:47:27.829Z,15.41
2023-05-07T23:49:56.086Z,15.45
2023-05-07T23:52:24.947Z,15.47
2023-05-07T23:54:53.143Z,15.38
2023-05-07T23:57:21.398Z,15.42
2023-05-07T23:59:49.919Z,15.57
